Time;durP1;ratioP1;P1;durP2;ratioP2;P2;SDS_P1;SDS_P2;PMS_P1;PMS_P2;Temp;Humidity;BMP_temperature;BMP_pressure;BME280_temperature;BME280_humidity;BME280_pressure;Samples;Min_cycle;Max_cycle;Signal;HPM_P1;HPM_P2
2021/08/21 00:02:42;;;;;;;16.40;6.45;;;;;;;14.17;81.78;101782.25;10197201;28;20093;-65
2021/08/21 00:07:39;;;;;;;10.95;6.40;;;;;;;14.14;81.92;101785.66;10197072;28;20050;-65
2021/08/21 00:12:36;;;;;;;10.85;5.82;;;;;;;14.10;81.68;101791.75;10189347;28;20101;-65
2021/08/21 00:17:32;;;;;;;11.95;5.82;;;;;;;14.09;81.88;101801.16;10196173;28;20116;-65
2021/08/21 00:22:29;;;;;;;11.07;6.60;;;;;;;14.04;82.01;101803.22;10199834;28;20046;-65
2021/08/21 00:27:27;;;;;;;8.10;5.63;;;;;;;14.00;81.84;101797.53;10199251;28;20680;-65
2021/08/21 00:32:23;;;;;;;9.88;5.85;;;;;;;13.96;82.11;101796.53;10169405;28;20073;-65
2021/08/21 00:37:20;;;;;;;9.32;5.88;;;;;;;13.98;82.01;101799.78;10169677;28;20076;-65
2021/08/21 00:42:17;;;;;;;11.85;6.10;;;;;;;13.93;82.15;101802.69;10174831;28;20076;-65
2021/08/21 00:47:18;;;;;;;11.05;6.05;;;;;;;13.91;82.23;101801.38;10198401;28;20057;-65
2021/08/21 00:52:44;;;;;;;12.25;6.00;;;;;;;13.87;82.60;101801.97;10197642;28;20151;-65
2021/08/21 00:57:40;;;;;;;10.80;6.00;;;;;;;13.84;82.45;101799.06;10185029;28;20085;-65
2021/08/21 01:02:38;;;;;;;10.35;6.05;;;;;;;13.78;82.56;101805.81;10168048;28;20042;-65
2021/08/21 01:07:36;;;;;;;11.38;6.00;;;;;;;13.73;82.12;101808.69;10189335;28;20041;-65
2021/08/21 01:12:34;;;;;;;9.30;5.90;;;;;;;13.68;82.41;101802.19;10197342;28;20076;-65
2021/08/21 01:17:31;;;;;;;9.40;5.85;;;;;;;13.64;82.17;101812.16;10181250;28;20895;-65
2021/08/21 01:22:29;;;;;;;8.57;5.85;;;;;;;13.59;82.39;101804.06;10197321;28;20053;-65
2021/08/21 01:27:31;;;;;;;10.60;5.97;;;;;;;13.55;82.16;101797.53;10166961;28;20042;-65
2021/08/21 01:32:28;;;;;;;9.57;6.47;;;;;;;13.49;82.30;101793.31;10144224;28;20057;-65
2021/08/21 01:37:28;;;;;;;12.18;5.90;;;;;;;13.44;82.55;101796.19;10193291;28;20073;-65
2021/08/21 01:42:25;;;;;;;8.52;5.63;;;;;;;13.40;82.37;101789.69;10190683;28;20074;-65
2021/08/21 01:47:22;;;;;;;9.45;5.82;;;;;;;13.37;82.59;101791.13;10196231;28;20428;-65
2021/08/21 01:52:18;;;;;;;10.07;6.20;;;;;;;13.32;82.42;101798.66;10170865;28;20046;-65
2021/08/21 01:57:15;;;;;;;9.43;6.25;;;;;;;13.30;82.45;101789.91;10176871;28;20097;-65
2021/08/21 02:02:14;;;;;;;12.40;6.57;;;;;;;13.28;82.79;101792.19;10194806;28;20045;-65
2021/08/21 02:07:11;;;;;;;9.73;5.68;;;;;;;13.24;82.42;101787.25;10167068;28;20460;-65
2021/08/21 02:12:08;;;;;;;9.45;5.55;;;;;;;13.21;82.45;101790.63;10193033;28;20081;-65
2021/08/21 02:17:05;;;;;;;11.23;5.97;;;;;;;13.15;82.10;101791.84;10193967;28;20077;-65
2021/08/21 02:22:04;;;;;;;10.90;6.40;;;;;;;13.09;82.31;101790.38;10194831;28;20053;-65
2021/08/21 02:27:02;;;;;;;8.52;5.45;;;;;;;13.07;82.09;101787.09;10189490;28;20072;-65
2021/08/21 02:31:59;;;;;;;10.70;6.78;;;;;;;13.02;81.96;101784.47;10187802;28;20504;-65
2021/08/21 02:36:56;;;;;;;9.02;5.75;;;;;;;12.96;82.14;101785.69;10186255;28;20073;-65
2021/08/21 02:41:53;;;;;;;9.75;5.65;;;;;;;12.94;81.92;101787.94;10194459;28;20046;-65
2021/08/21 02:46:50;;;;;;;12.25;6.50;;;;;;;12.87;82.31;101782.06;10194765;28;20042;-65
2021/08/21 02:51:46;;;;;;;9.35;6.57;;;;;;;12.84;82.21;101783.50;10172800;28;20051;-65
2021/08/21 02:56:43;;;;;;;9.88;6.00;;;;;;;12.79;82.57;101787.16;10184703;28;20511;-65
2021/08/21 03:01:39;;;;;;;9.52;6.00;;;;;;;12.77;82.52;101788.59;10165806;28;20090;-65
2021/08/21 03:06:36;;;;;;;11.73;6.47;;;;;;;12.74;82.38;101790.00;10182864;28;20050;-65
2021/08/21 03:11:32;;;;;;;12.45;6.18;;;;;;;12.73;82.12;101796.59;10159222;28;20077;-65
2021/08/21 03:16:29;;;;;;;9.85;6.20;;;;;;;12.68;82.37;101790.41;10189958;28;20069;-65
2021/08/21 03:21:25;;;;;;;9.68;6.35;;;;;;;12.64;82.70;101798.44;10186841;28;20050;-65
2021/08/21 03:26:22;;;;;;;14.60;6.47;;;;;;;12.61;82.61;101807.28;10200006;28;20505;-65
2021/08/21 03:31:18;;;;;;;9.70;6.50;;;;;;;12.51;82.45;101819.28;10181744;28;20125;-65
2021/08/21 03:36:15;;;;;;;12.05;6.40;;;;;;;12.54;83.00;101823.34;10182692;28;20121;-65
2021/08/21 03:41:11;;;;;;;13.10;7.05;;;;;;;12.55;82.95;101824.94;10179309;28;20057;-65
2021/08/21 03:46:08;;;;;;;12.68;6.50;;;;;;;12.59;83.29;101823.22;10182674;28;20076;-65
2021/08/21 03:51:04;;;;;;;11.55;6.18;;;;;;;12.68;83.67;101828.84;10176866;28;20046;-65
2021/08/21 03:56:01;;;;;;;12.02;7.30;;;;;;;12.71;84.30;101829.00;10189085;28;20487;-65
2021/08/21 04:00:57;;;;;;;14.30;7.85;;;;;;;12.77;84.57;101838.78;10161121;28;20046;-65
2021/08/21 04:05:55;;;;;;;10.60;6.68;;;;;;;12.82;84.79;101830.44;10183141;28;20450;-65
2021/08/21 04:10:52;;;;;;;16.52;7.18;;;;;;;12.89;85.50;101841.00;10199578;28;20089;-65
2021/08/21 04:15:48;;;;;;;11.00;6.75;;;;;;;12.98;85.56;101843.84;10199618;28;20524;-65
2021/08/21 04:20:45;;;;;;;9.75;6.82;;;;;;;13.03;85.76;101841.00;10198372;28;20129;-65
2021/08/21 04:25:41;;;;;;;10.27;6.90;;;;;;;13.08;85.48;101837.34;10198498;28;20046;-65
2021/08/21 04:30:38;;;;;;;25.38;7.90;;;;;;;13.13;86.12;101829.78;10161211;28;20050;-65
2021/08/21 04:35:34;;;;;;;12.85;6.47;;;;;;;13.16;86.05;101831.09;10163989;28;20401;-65
2021/08/21 04:40:31;;;;;;;14.00;7.22;;;;;;;13.18;86.50;101837.94;10199250;28;20088;-65
2021/08/21 04:45:28;;;;;;;10.30;6.90;;;;;;;13.21;86.31;101836.50;10185109;28;20072;-65
2021/08/21 04:50:24;;;;;;;13.23;6.55;;;;;;;13.22;86.69;101832.63;10198462;28;20124;-65
2021/08/21 04:55:21;;;;;;;13.30;7.18;;;;;;;13.20;86.72;101845.84;10197541;28;20046;-65
2021/08/21 05:00:17;;;;;;;14.25;7.85;;;;;;;13.16;86.53;101845.66;10198006;28;20084;-65
2021/08/21 05:05:14;;;;;;;10.15;7.00;;;;;;;13.14;86.61;101847.91;10197472;28;20419;-65
2021/08/21 05:10:12;;;;;;;11.10;7.57;;;;;;;13.12;86.25;101846.59;10198077;28;20077;-65
2021/08/21 05:15:08;;;;;;;12.38;8.38;;;;;;;13.10;86.45;101863.38;10197749;28;20042;-65
2021/08/21 05:20:51;;;;;;;16.30;7.88;;;;;;;13.14;86.51;101863.56;10161791;28;20074;-65
2021/08/21 05:25:26;;;;;;;12.77;7.93;;;;;;;13.15;86.85;101860.50;10184278;28;20054;-65
2021/08/21 05:30:27;;;;;;;18.40;8.05;;;;;;;13.16;86.83;101864.91;10197310;28;20405;-65
2021/08/21 05:35:24;;;;;;;12.73;7.15;;;;;;;13.19;87.01;101867.00;10180163;28;20049;-65
2021/08/21 05:40:20;;;;;;;14.15;9.00;;;;;;;13.25;87.32;101870.44;10197116;28;20404;-65
2021/08/21 05:45:16;;;;;;;13.65;8.32;;;;;;;13.34;87.55;101876.06;10191383;28;20304;-65
2021/08/21 05:50:14;;;;;;;14.98;9.05;;;;;;;13.42;88.10;101878.09;10191459;28;20111;-65
2021/08/21 05:55:10;;;;;;;15.18;8.30;;;;;;;13.49;88.38;101875.75;10188511;28;20057;-65
2021/08/21 06:00:08;;;;;;;12.68;8.15;;;;;;;13.60;88.44;101871.63;10196692;28;20085;-65
2021/08/21 06:05:05;;;;;;;13.05;8.27;;;;;;;13.71;88.49;101876.88;10195837;28;20084;-65
2021/08/21 06:10:01;;;;;;;11.23;8.10;;;;;;;13.82;88.87;101878.28;10168808;28;20054;-65
2021/08/21 06:14:58;;;;;;;10.27;6.65;;;;;;;13.92;89.20;101877.22;10183250;28;20042;-65
2021/08/21 06:19:56;;;;;;;10.95;6.50;;;;;;;14.06;89.41;101884.28;10155968;28;20108;-65
2021/08/21 06:24:52;;;;;;;12.27;7.38;;;;;;;14.23;89.54;101894.59;10180402;28;20046;-65
2021/08/21 06:29:49;;;;;;;15.57;6.72;;;;;;;14.38;89.96;101885.13;10195509;28;20056;-65
2021/08/21 06:34:45;;;;;;;9.80;5.28;;;;;;;14.52;89.72;101880.31;10180761;28;20086;-65
2021/08/21 06:39:42;;;;;;;7.45;5.63;;;;;;;14.64;89.32;101890.78;10155104;28;20463;-65
2021/08/21 06:44:38;;;;;;;7.90;4.35;;;;;;;14.80;88.62;101899.44;10171853;28;20082;-65
2021/08/21 06:49:35;;;;;;;6.47;3.30;;;;;;;14.92;88.05;101899.66;10200809;28;20070;-65
2021/08/21 06:54:31;;;;;;;7.13;3.13;;;;;;;14.97;87.09;101906.13;10202231;28;20480;-65
2021/08/21 06:59:27;;;;;;;6.25;2.78;;;;;;;15.11;86.91;101906.84;10202845;28;20120;-65
2021/08/21 07:04:24;;;;;;;9.25;2.88;;;;;;;15.25;86.50;101910.28;10185027;28;20042;-65
2021/08/21 07:09:21;;;;;;;6.63;2.97;;;;;;;15.34;86.20;101911.13;10196813;28;20066;-65
2021/08/21 07:14:17;;;;;;;8.52;3.15;;;;;;;15.47;86.24;101900.25;10176365;28;20100;-65
2021/08/21 07:19:14;;;;;;;5.97;2.92;;;;;;;15.55;84.78;101910.50;10194776;28;20467;-65
2021/08/21 07:24:10;;;;;;;5.10;2.15;;;;;;;15.63;84.17;101911.63;10170911;28;20081;-65
2021/08/21 07:29:07;;;;;;;7.53;1.77;;;;;;;15.66;82.74;101917.31;10200810;28;20092;-65
2021/08/21 07:34:03;;;;;;;4.47;1.80;;;;;;;15.73;82.04;101916.84;10201400;28;20065;-66
2021/08/21 07:39:00;;;;;;;7.03;2.25;;;;;;;15.84;81.57;101918.16;10200221;28;20072;-65
2021/08/21 07:43:57;;;;;;;5.03;2.13;;;;;;;15.87;80.35;101922.22;10200810;28;20507;-65
2021/08/21 07:48:54;;;;;;;8.82;2.35;;;;;;;16.05;80.43;101923.03;10200202;28;20076;-65
2021/08/21 07:53:50;;;;;;;5.38;1.85;;;;;;;16.17;79.43;101925.94;10193932;28;20077;-65
2021/08/21 07:58:46;;;;;;;8.23;1.75;;;;;;;16.29;78.84;101933.53;10200149;28;20081;-65
2021/08/21 08:03:43;;;;;;;4.57;1.55;;;;;;;16.44;78.64;101930.28;10199566;28;20076;-66
2021/08/21 08:08:39;;;;;;;7.45;1.63;;;;;;;16.58;78.00;101919.84;10199817;28;20046;-65
2021/08/21 08:13:36;;;;;;;3.88;1.40;;;;;;;16.70;76.08;101915.56;10175263;28;20609;-65
2021/08/21 08:18:32;;;;;;;4.35;1.42;;;;;;;16.80;75.50;101918.00;10201098;28;20582;-66
2021/08/21 08:23:29;;;;;;;5.50;1.98;;;;;;;16.90;74.21;101925.94;10199364;28;20041;-65
2021/08/21 08:28:25;;;;;;;5.20;1.38;;;;;;;17.00;73.31;101914.50;10176350;28;20077;-65
2021/08/21 08:33:22;;;;;;;5.25;1.30;;;;;;;17.12;73.34;101924.03;10196522;28;20069;-66
2021/08/21 08:38:19;;;;;;;3.38;1.10;;;;;;;17.18;72.48;101931.81;10174990;28;20527;-65
2021/08/21 08:43:18;;;;;;;4.40;1.40;;;;;;;17.27;71.29;101929.00;10193105;28;20104;-65
2021/08/21 08:48:14;;;;;;;7.25;1.55;;;;;;;17.31;71.52;101931.91;10192377;28;20077;-67
2021/08/21 08:53:11;;;;;;;7.65;1.40;;;;;;;17.44;70.84;101919.78;10192316;28;20046;-65
2021/08/21 08:58:07;;;;;;;3.17;1.05;;;;;;;17.61;70.48;101929.91;10198082;28;20284;-66
2021/08/21 09:03:04;;;;;;;4.30;1.20;;;;;;;17.72;68.58;101933.91;10180474;28;20101;-65
2021/08/21 09:08:01;;;;;;;4.40;1.10;;;;;;;17.86;68.43;101936.44;10196301;28;20487;-66
2021/08/21 09:13:10;;;;;;;5.35;1.30;;;;;;;17.95;67.41;101936.34;10174279;28;20108;-65
2021/08/21 09:18:22;;;;;;;6.88;2.08;;;;;;;18.08;68.50;101929.75;10184875;28;20107;-66
2021/08/21 09:23:43;;;;;;;4.63;1.35;;;;;;;18.18;68.20;101928.50;10189718;28;20052;-66
2021/08/21 09:28:43;;;;;;;3.92;0.93;;;;;;;18.26;66.75;101931.19;10181204;28;20046;-67
2021/08/21 09:33:50;;;;;;;7.22;1.05;;;;;;;18.43;66.71;101934.94;10188137;28;20482;-65
2021/08/21 09:38:47;;;;;;;2.15;0.80;;;;;;;18.50;66.75;101924.09;10192486;28;20554;-66
2021/08/21 09:43:44;;;;;;;7.38;1.08;;;;;;;18.67;64.63;101929.44;10190042;28;20057;-66
2021/08/21 09:49:06;;;;;;;4.38;0.98;;;;;;;18.94;63.92;101935.50;10196336;28;20587;-66
2021/08/21 09:54:05;;;;;;;2.20;0.80;;;;;;;19.01;63.09;101926.63;10180450;28;20401;-66
2021/08/21 09:59:03;;;;;;;4.65;1.42;;;;;;;19.10;61.05;101930.91;10195787;28;20072;-66
2021/08/21 10:04:01;;;;;;;2.22;0.85;;;;;;;19.48;60.11;101928.91;10178688;28;20116;-66
2021/08/21 10:09:06;;;;;;;3.08;0.80;;;;;;;19.95;59.92;101923.56;10195556;28;20049;-66
2021/08/21 10:14:04;;;;;;;5.18;0.95;;;;;;;20.55;56.81;101926.41;10188622;28;20052;-66
2021/08/21 10:19:00;;;;;;;3.47;1.13;;;;;;;21.18;56.73;101908.91;10191189;28;20046;-66
2021/08/21 10:23:57;;;;;;;3.00;0.70;;;;;;;22.14;55.03;101908.56;10181900;28;20076;-66
2021/08/21 10:28:55;;;;;;;5.35;1.10;;;;;;;22.78;51.78;101911.75;10182544;28;20104;-66
2021/08/21 10:33:58;;;;;;;2.80;0.90;;;;;;;23.78;52.69;101912.47;10179755;28;20046;-66
2021/08/21 10:39:12;;;;;;;2.92;0.90;;;;;;;24.15;47.40;101907.69;10191336;28;20124;-66
2021/08/21 10:44:09;;;;;;;5.15;1.08;;;;;;;24.85;48.32;101899.59;10193438;28;20050;-66
2021/08/21 10:49:08;;;;;;;2.35;0.65;;;;;;;25.36;47.09;101911.97;10194791;28;20070;-66
2021/08/21 10:54:43;;;;;;;2.70;1.10;;;;;;;25.73;46.23;101914.53;10181016;28;20076;-66
2021/08/21 10:59:45;;;;;;;1.15;0.60;;;;;;;25.85;43.58;101909.78;10194783;28;20042;-66
2021/08/21 11:04:41;;;;;;;3.58;1.05;;;;;;;26.27;43.68;101905.53;10190797;28;20132;-66
2021/08/21 11:09:38;;;;;;;4.32;0.80;;;;;;;26.17;43.31;101904.31;10194289;28;20419;-66
2021/08/21 11:14:38;;;;;;;3.70;0.85;;;;;;;26.31;42.55;101892.31;10185618;28;20081;-66
2021/08/21 11:19:46;;;;;;;3.78;0.82;;;;;;;26.12;40.89;101901.91;10177339;28;20050;-66
2021/08/21 11:24:52;;;;;;;3.40;0.90;;;;;;;26.11;40.65;101900.28;10179067;28;20053;-66
2021/08/21 11:30:07;;;;;;;5.18;0.77;;;;;;;25.45;40.64;101900.41;10187289;28;20070;-66
2021/08/21 11:35:04;;;;;;;1.58;0.60;;;;;;;25.14;40.27;101902.59;10184801;28;20058;-66
2021/08/21 11:40:01;;;;;;;3.40;0.90;;;;;;;24.71;40.16;101899.47;10191718;28;20511;-66
2021/08/21 11:44:58;;;;;;;3.85;0.80;;;;;;;24.64;40.60;101893.81;10184910;28;20074;-66
2021/08/21 11:49:55;;;;;;;2.33;0.60;;;;;;;24.17;39.81;101898.16;10177551;28;20042;-66
2021/08/21 11:54:52;;;;;;;1.88;0.80;;;;;;;23.84;41.32;101897.00;10182312;28;20088;-66
2021/08/21 11:59:48;;;;;;;3.13;1.00;;;;;;;23.79;42.57;101891.72;10183055;28;20461;-66
2021/08/21 12:04:55;;;;;;;3.08;1.52;;;;;;;23.37;43.34;101878.78;10197208;28;20045;-66
2021/08/21 12:09:58;;;;;;;3.40;1.02;;;;;;;23.39;44.72;101880.03;10193111;28;20105;-66
2021/08/21 12:14:54;;;;;;;3.28;1.00;;;;;;;23.21;45.79;101877.00;10179277;28;20050;-66
2021/08/21 12:19:51;;;;;;;3.05;0.70;;;;;;;23.45;45.07;101870.13;10187001;28;20039;-66
2021/08/21 12:24:55;;;;;;;2.15;0.70;;;;;;;23.59;43.68;101869.53;10176834;28;20101;-66
2021/08/21 12:30:23;;;;;;;3.20;0.80;;;;;;;23.68;41.16;101872.81;10197050;28;20038;-66
2021/08/21 12:35:20;;;;;;;2.42;0.75;;;;;;;23.89;41.28;101865.91;10144846;28;20056;-66
2021/08/21 12:40:17;;;;;;;2.45;1.00;;;;;;;23.44;42.40;101867.72;10172330;28;20468;-66
2021/08/21 12:45:17;;;;;;;6.00;1.08;;;;;;;23.17;43.83;101856.63;10177283;28;20088;-66
2021/08/21 12:50:14;;;;;;;2.75;1.10;;;;;;;22.82;44.12;101857.66;10180141;28;20054;-66
2021/08/21 12:55:11;;;;;;;4.68;2.17;;;;;;;22.66;45.02;101857.00;10197986;28;20081;-66
2021/08/21 13:00:16;;;;;;;2.05;0.65;;;;;;;22.54;44.56;101860.00;10176838;28;20046;-66
2021/08/21 13:05:16;;;;;;;3.22;1.23;;;;;;;22.72;46.20;101855.53;10183745;28;20046;-66
2021/08/21 13:10:14;;;;;;;4.95;1.55;;;;;;;22.85;45.18;101853.31;10172785;28;20080;-66
2021/08/21 13:15:13;;;;;;;4.20;1.30;;;;;;;22.87;43.95;101850.97;10183894;28;20089;-66
2021/08/21 13:20:11;;;;;;;3.58;0.75;;;;;;;22.85;41.48;101842.97;10170870;28;20480;-66
2021/08/21 13:25:08;;;;;;;2.63;0.90;;;;;;;22.90;44.14;101831.47;10188691;28;20084;-66
2021/08/21 13:30:06;;;;;;;3.13;1.13;;;;;;;23.02;45.27;101824.09;10197182;28;20507;-66
2021/08/21 13:35:03;;;;;;;3.00;0.90;;;;;;;23.04;43.46;101824.53;10182622;28;20499;-66
2021/08/21 13:39:59;;;;;;;4.10;0.90;;;;;;;22.99;43.18;101824.88;10197282;28;20050;-66
2021/08/21 13:44:56;;;;;;;3.80;1.20;;;;;;;22.94;42.80;101817.59;10180162;28;20105;-66
2021/08/21 13:49:52;;;;;;;2.65;1.05;;;;;;;22.96;44.56;101811.66;10190699;28;20508;-66
2021/08/21 13:54:49;;;;;;;2.92;1.00;;;;;;;23.16;44.39;101810.38;10170155;28;20515;-66
2021/08/21 13:59:50;;;;;;;2.60;0.90;;;;;;;23.38;39.89;101807.84;10162906;28;20520;-66
2021/08/21 14:04:46;;;;;;;4.72;1.20;;;;;;;23.55;41.35;101790.50;10191290;28;20417;-66
2021/08/21 14:09:43;;;;;;;3.63;0.90;;;;;;;23.44;43.35;101800.75;10158298;28;20429;-66
2021/08/21 14:14:39;;;;;;;2.45;0.90;;;;;;;23.28;42.36;101798.19;10189289;28;20133;-66
2021/08/21 14:19:36;;;;;;;2.42;1.00;;;;;;;23.16;42.92;101790.84;10195637;28;20073;-65
2021/08/21 14:24:33;;;;;;;3.97;1.20;;;;;;;23.19;43.54;101798.47;10185406;28;20050;-66
2021/08/21 14:29:29;;;;;;;2.30;0.90;;;;;;;23.19;42.39;101790.09;10195223;28;20683;-65
2021/08/21 14:34:26;;;;;;;2.60;1.00;;;;;;;23.04;42.59;101788.28;10182542;28;20077;-65
2021/08/21 14:39:22;;;;;;;2.53;0.90;;;;;;;23.05;44.25;101792.69;10194075;28;20038;-66
2021/08/21 14:44:18;;;;;;;3.17;1.00;;;;;;;23.16;44.94;101793.66;10190523;28;20481;-66
2021/08/21 14:49:15;;;;;;;1.85;0.75;;;;;;;23.25;45.79;101785.75;10193559;28;20042;-65
2021/08/21 14:54:11;;;;;;;4.00;1.13;;;;;;;23.14;45.29;101782.06;10188420;28;20065;-66
2021/08/21 14:59:08;;;;;;;2.47;1.00;;;;;;;22.89;46.16;101779.69;10194141;28;20073;-65
2021/08/21 15:04:04;;;;;;;2.45;1.00;;;;;;;22.92;47.71;101780.13;10185644;28;20119;-65
2021/08/21 15:09:01;;;;;;;6.85;1.92;;;;;;;22.67;48.43;101775.81;10183040;28;20057;-65
2021/08/21 15:13:58;;;;;;;3.85;1.35;;;;;;;22.48;48.51;101768.31;10191022;28;20137;-65
2021/08/21 15:18:54;;;;;;;3.35;1.50;;;;;;;22.45;50.54;101769.09;10200890;28;20125;-66
2021/08/21 15:23:53;;;;;;;3.72;1.23;;;;;;;22.61;50.39;101770.91;10201410;28;20049;-66
2021/08/21 15:28:50;;;;;;;4.35;1.60;;;;;;;22.80;48.94;101758.84;10178508;28;20081;-66
2021/08/21 15:33:46;;;;;;;6.28;3.15;;;;;;;22.93;49.86;101753.81;10186272;28;20401;-66
2021/08/21 15:38:43;;;;;;;5.47;3.35;;;;;;;22.96;49.94;101753.88;10185318;28;20069;-65
2021/08/21 15:43:39;;;;;;;5.55;1.80;;;;;;;22.77;50.04;101746.47;10194582;28;20108;-66
2021/08/21 15:48:39;;;;;;;4.15;1.25;;;;;;;22.81;49.39;101752.06;10200674;28;20074;-65
2021/08/21 15:53:36;;;;;;;5.25;1.20;;;;;;;22.89;49.17;101737.88;10196127;28;20046;-66
2021/08/21 15:58:33;;;;;;;4.72;1.40;;;;;;;22.89;49.78;101740.66;10196195;28;20047;-66
2021/08/21 16:03:33;;;;;;;3.15;1.23;;;;;;;22.84;48.58;101735.41;10179171;28;20058;-65
2021/08/21 16:08:30;;;;;;;2.42;1.02;;;;;;;22.81;49.41;101725.03;10197399;28;20046;-66
2021/08/21 16:13:27;;;;;;;6.47;2.22;;;;;;;23.13;49.95;101724.66;10199992;28;20084;-65
2021/08/21 16:18:23;;;;;;;4.32;1.70;;;;;;;23.51;50.33;101725.50;10184691;28;20393;-65
2021/08/21 16:23:20;;;;;;;10.57;4.85;;;;;;;23.56;50.61;101730.72;10194632;28;20100;-65
2021/08/21 16:28:18;;;;;;;5.97;1.75;;;;;;;23.22;50.00;101739.09;10199110;28;20092;-65
2021/08/21 16:33:15;;;;;;;4.85;1.90;;;;;;;22.93;51.03;101742.69;10189981;28;20484;-66
2021/08/21 16:38:11;;;;;;;3.65;1.58;;;;;;;22.58;52.28;101733.47;10199336;28;20508;-66
2021/08/21 16:43:08;;;;;;;5.78;1.95;;;;;;;22.35;52.06;101729.91;10169543;28;20111;-66
2021/08/21 16:48:05;;;;;;;8.52;2.17;;;;;;;22.16;55.41;101728.78;10177728;28;20416;-65
2021/08/21 16:53:01;;;;;;;6.40;1.92;;;;;;;22.14;55.43;101727.53;10166470;28;20050;-65
2021/08/21 16:57:58;;;;;;;4.15;2.08;;;;;;;22.21;54.24;101730.47;10190887;28;20412;-65
2021/08/21 17:02:55;;;;;;;15.20;2.30;;;;;;;22.37;55.95;101725.59;10163898;28;20042;-65
2021/08/21 17:07:51;;;;;;;5.28;2.00;;;;;;;22.20;54.86;101728.84;10177440;28;20049;-65
2021/08/21 17:12:48;;;;;;;10.60;2.30;;;;;;;21.98;54.67;101717.34;10198022;28;20046;-65
2021/08/21 17:17:45;;;;;;;3.63;1.75;;;;;;;21.80;55.28;101719.03;10164031;28;20551;-64
2021/08/21 17:22:43;;;;;;;4.97;2.00;;;;;;;21.58;56.02;101718.66;10192574;28;20074;-66
2021/08/21 17:27:39;;;;;;;5.10;2.42;;;;;;;21.45;58.47;101721.97;10196653;28;20136;-66
2021/08/21 17:32:36;;;;;;;7.72;3.75;;;;;;;21.27;58.64;101721.56;10184947;28;20046;-66
2021/08/21 17:37:32;;;;;;;5.57;3.45;;;;;;;21.13;59.42;101717.31;10195558;28;20072;-65
2021/08/21 17:42:29;;;;;;;5.50;2.90;;;;;;;21.04;60.39;101713.97;10181457;28;20062;-65
2021/08/21 17:47:26;;;;;;;5.80;2.45;;;;;;;20.95;60.43;101714.16;10192981;28;20081;-65
2021/08/21 17:52:22;;;;;;;5.85;2.30;;;;;;;20.85;60.93;101714.75;10178752;28;20046;-66
2021/08/21 17:57:20;;;;;;;4.63;2.13;;;;;;;20.73;61.33;101718.47;10190249;28;20108;-65
2021/08/21 18:02:16;;;;;;;8.68;3.50;;;;;;;20.60;61.56;101722.53;10163027;28;20489;-65
2021/08/21 18:07:13;;;;;;;7.55;3.15;;;;;;;20.51;62.11;101724.69;10189115;28;20050;-65
2021/08/21 18:12:11;;;;;;;5.00;2.80;;;;;;;20.35;62.47;101722.75;10187796;28;20088;-65
2021/08/21 18:17:07;;;;;;;5.07;3.00;;;;;;;20.30;63.21;101724.97;10181935;28;20051;-65
2021/08/21 18:22:06;;;;;;;10.00;3.30;;;;;;;20.24;63.13;101721.69;10185110;28;20049;-65
2021/08/21 18:27:02;;;;;;;6.25;2.78;;;;;;;20.12;63.47;101724.53;10168682;28;20050;-65
2021/08/21 18:31:59;;;;;;;8.90;2.70;;;;;;;20.04;63.36;101728.31;10182884;28;20119;-65
2021/08/21 18:36:55;;;;;;;5.13;2.70;;;;;;;19.93;64.45;101720.50;10172926;28;20122;-65
2021/08/21 18:41:52;;;;;;;5.50;2.83;;;;;;;19.84;64.91;101713.53;10186832;28;20554;-65
2021/08/21 18:46:48;;;;;;;5.20;2.65;;;;;;;19.75;64.22;101713.72;10198537;28;20042;-66
2021/08/21 18:51:46;;;;;;;7.05;3.03;;;;;;;19.68;63.77;101719.00;10188973;28;20050;-65
2021/08/21 18:56:42;;;;;;;6.78;3.05;;;;;;;19.60;64.42;101731.09;10197331;28;20627;-65
2021/08/21 19:01:38;;;;;;;8.75;2.58;;;;;;;19.51;64.83;101723.72;10196705;28;20046;-65
2021/08/21 19:06:35;;;;;;;6.32;3.30;;;;;;;19.47;65.65;101731.16;10197028;28;20191;-65
2021/08/21 19:11:32;;;;;;;5.25;2.72;;;;;;;19.39;65.32;101723.81;10186268;28;20050;-65
2021/08/21 19:16:28;;;;;;;5.30;2.90;;;;;;;19.34;66.24;101726.84;10198585;28;20042;-65
2021/08/21 19:21:25;;;;;;;5.07;2.65;;;;;;;19.27;66.36;101726.63;10208037;28;20639;-65
2021/08/21 19:26:21;;;;;;;6.85;2.78;;;;;;;19.21;66.56;101725.25;10204494;28;20126;-65
2021/08/21 19:31:17;;;;;;;9.65;3.40;;;;;;;19.15;66.57;101721.94;10207684;28;20062;-65
2021/08/21 19:36:14;;;;;;;8.23;3.35;;;;;;;19.07;66.58;101720.91;10203907;28;20050;-65
2021/08/21 19:41:12;;;;;;;6.60;3.42;;;;;;;19.02;67.27;101723.94;10207928;28;20049;-66
2021/08/21 19:46:10;;;;;;;5.95;3.10;;;;;;;18.93;66.61;101717.72;10191497;28;20042;-67
2021/08/21 19:51:06;;;;;;;6.18;3.30;;;;;;;18.85;66.83;101718.69;10205648;28;20129;-66
2021/08/21 19:56:03;;;;;;;5.32;3.05;;;;;;;18.79;67.53;101717.31;10201127;28;20042;-66
2021/08/21 20:00:59;;;;;;;8.40;3.65;;;;;;;18.72;67.71;101715.88;10186130;28;20667;-66
2021/08/21 20:05:56;;;;;;;5.97;3.33;;;;;;;18.65;68.07;101710.13;10199743;28;20522;-67
2021/08/21 20:10:52;;;;;;;7.28;3.33;;;;;;;18.59;68.46;101711.56;10168620;28;20077;-64
2021/08/21 20:15:49;;;;;;;7.30;3.80;;;;;;;18.54;68.04;101714.53;10196582;28;20088;-66
2021/08/21 20:20:46;;;;;;;8.60;4.05;;;;;;;18.51;68.94;101712.47;10199542;28;20046;-66
2021/08/21 20:25:42;;;;;;;8.13;3.88;;;;;;;18.48;69.23;101713.19;10187736;28;20046;-66
2021/08/21 20:30:39;;;;;;;6.95;4.18;;;;;;;18.42;69.45;101717.31;10199688;28;20551;-67
2021/08/21 20:35:36;;;;;;;7.75;4.60;;;;;;;18.33;68.73;101719.41;10196094;28;20052;-66
2021/08/21 20:40:33;;;;;;;8.45;4.07;;;;;;;18.28;69.05;101717.66;10199549;28;20050;-65
2021/08/21 20:45:29;;;;;;;9.77;5.53;;;;;;;18.23;69.74;101715.94;10195939;28;20050;-67
2021/08/21 20:50:26;;;;;;;9.00;5.05;;;;;;;18.15;69.91;101714.13;10199146;28;20133;-65
2021/08/21 20:55:22;;;;;;;6.72;4.63;;;;;;;18.10;70.34;101714.31;10194296;28;20092;-66
2021/08/21 21:00:19;;;;;;;11.00;5.72;;;;;;;18.04;70.16;101707.41;10198728;28;20049;-67
2021/08/21 21:05:16;;;;;;;9.48;5.72;;;;;;;18.02;70.58;101712.47;10185760;28;20427;-66
2021/08/21 21:10:13;;;;;;;9.15;6.07;;;;;;;17.98;71.12;101714.31;10198494;28;20100;-66
2021/08/21 21:15:10;;;;;;;10.88;5.55;;;;;;;17.95;71.39;101715.00;10190907;28;20451;-66
2021/08/21 21:20:07;;;;;;;10.43;5.57;;;;;;;17.93;71.50;101717.31;10185730;28;20088;-67
2021/08/21 21:25:04;;;;;;;10.07;5.60;;;;;;;17.90;71.84;101712.47;10186439;28;20108;-66
2021/08/21 21:30:00;;;;;;;10.05;5.22;;;;;;;17.86;72.17;101707.59;10197015;28;20054;-66
2021/08/21 21:34:57;;;;;;;8.80;5.43;;;;;;;17.85;72.08;101700.47;10196594;28;20077;-67
2021/08/21 21:39:54;;;;;;;8.45;4.90;;;;;;;17.83;71.83;101705.53;10184972;28;20037;-65
2021/08/21 21:44:50;;;;;;;11.43;5.40;;;;;;;17.81;71.70;101710.59;10187859;28;20069;-65
2021/08/21 21:49:46;;;;;;;11.13;5.13;;;;;;;17.80;72.09;101708.97;10162940;28;20072;-66
2021/08/21 21:54:44;;;;;;;10.63;5.90;;;;;;;17.75;72.24;101703.63;10189887;28;20057;-67
2021/08/21 21:59:40;;;;;;;9.63;4.97;;;;;;;17.72;72.03;101701.56;10196205;28;20149;-66
2021/08/21 22:04:36;;;;;;;9.23;4.72;;;;;;;17.68;72.59;101700.63;10194020;28;20512;-66
2021/08/21 22:09:33;;;;;;;7.05;4.45;;;;;;;17.64;72.86;101694.97;10195077;28;20496;-65
2021/08/21 22:14:30;;;;;;;7.85;4.28;;;;;;;17.59;73.00;101694.38;10173059;28;20045;-67
2021/08/21 22:19:26;;;;;;;5.78;3.67;;;;;;;17.56;72.91;101686.78;10183814;28;20073;-66
2021/08/21 22:24:23;;;;;;;4.93;3.35;;;;;;;17.52;72.56;101691.38;10170554;28;20128;-65
2021/08/21 22:29:20;;;;;;;5.05;3.05;;;;;;;17.51;72.36;101689.75;10191576;28;20463;-67
2021/08/21 22:34:16;;;;;;;8.25;3.45;;;;;;;17.45;72.90;101687.22;10194734;28;20121;-67
2021/08/21 22:39:13;;;;;;;7.35;3.10;;;;;;;17.45;72.98;101686.38;10171840;28;20124;-65
2021/08/21 22:44:09;;;;;;;6.25;4.00;;;;;;;17.39;72.57;101688.56;10185736;28;20225;-67